Date,TemperatureHighF,TemperatureAvgF,TemperatureLowF,DewpointHighF,DewpointAvgF,DewpointLowF,HumidityHigh,HumidityAvg,HumidityLow,PressureMaxIn,PressureMinIn,WindSpeedMaxMPH,WindSpeedAvgMPH,GustSpeedMaxMPH,PrecipitationSumIn
2013-1-1,16,4,-8,1,-5,-13,85,66,44,0.00,40.00,8,3,12,0.00
2013-1-2,23,18,11,12,8,1,85,68,44,0.00,40.00,10,4,15,0.00
2013-1-3,24,19,11,18,13,6,83,79,74,0.00,40.00,11,6,17,0.00
2013-1-4,33,18,9,16,11,4,93,73,49,0.00,40.00,10,5,17,0.00
2013-1-5,32,19,2,29,14,-1,93,82,67,0.00,40.00,9,3,13,0.00
2013-1-6,33,24,8,26,18,6,96,79,63,0.00,40.00,10,6,20,0.00
2013-1-7,40,22,3,23,14,0,99,75,47,0.00,40.00,12,4,24,0.00
2013-1-8,40,25,9,31,21,7,99,84,61,0.00,40.00,10,3,19,0.00
2013-1-9,42,34,20,31,24,19,99,70,42,0.00,40.00,13,8,27,0.00
2013-1-10,37,28,14,35,24,13,100,88,59,0.00,40.00,6,3,12,0.29
2013-1-11,43,38,34,43,38,34,100,100,100,0.00,40.00,7,3,12,0.45
2013-1-12,45,32,19,44,26,11,100,77,60,0.00,40.00,13,8,27,0.01
2013-1-13,19,14,10,11,5,0,76,67,56,0.00,40.00,11,8,19,0.00
2013-1-14,23,11,4,8,3,-1,90,71,48,0.00,40.00,10,4,19,0.00
2013-1-15,31,14,-1,14,5,-5,90,69,42,0.00,40.00,10,4,18,0.00
2013-1-16,31,25,17,31,18,8,100,75,52,0.00,40.00,12,7,20,0.00
2013-1-17,23,14,3,8,1,-6,88,57,34,0.00,40.00,11,6,24,0.00
2013-1-18,44,25,2,30,18,-1,99,78,55,0.00,40.00,11,5,24,0.04
2013-1-19,47,31,11,34,24,-3,100,77,43,0.00,40.00,24,8,44,0.01
2013-1-20,12,7,3,-3,-7,-9,60,52,41,0.00,40.00,19,10,34,0.01
2013-1-21,6,-2,-8,-5,-15,-21,67,53,41,0.00,40.00,14,10,24,0.00
2013-1-22,4,-4,-11,-9,-16,-20,75,58,41,0.00,40.00,10,5,15,0.00
2013-1-23,16,6,-5,11,-2,-11,86,70,49,0.00,40.00,15,6,24,0.00
2013-1-24,12,5,-4,6,-7,-12,82,57,40,0.00,40.00,8,4,19,0.00
2013-1-25,22,16,10,15,11,6,92,82,67,0.00,40.00,9,5,16,0.01
2013-1-26,25,15,-1,11,5,-4,85,67,46,0.00,40.00,7,4,13,0.01
2013-1-27,31,27,21,31,20,10,100,78,60,0.00,40.00,6,5,13,0.27
2013-1-28,35,33,31,35,32,31,100,99,93,0.00,40.00,7,3,11,0.25
2013-1-29,43,36,32,43,36,32,100,100,100,0.00,40.00,6,4,14,0.35
2013-1-30,34,26,14,34,26,10,100,97,83,0.00,40.00,13,8,26,0.20
2013-1-31,14,7,-1,10,-1,-8,83,71,60,0.00,40.00,12,10,22,0.01
2013-2-1,6,-1,-9,-2,-11,-18,82,62,45,0.00,40.00,10,7,18,0.00
2013-2-2,15,5,-3,-1,-3,-7,85,70,41,0.00,40.00,6,3,11,0.02
2013-2-3,19,10,-3,7,1,-7,87,70,49,0.00,40.00,12,6,22,0.00
2013-2-4,19,11,2,7,2,-7,88,70,34,0.00,40.00,7,2,13,0.00
2013-2-5,26,15,-5,22,11,-10,94,83,69,0.00,40.00,10,5,19,0.01
2013-2-6,28,12,-8,25,8,-13,100,84,57,0.00,40.00,6,2,12,0.01
2013-2-7,29,26,22,29,26,21,100,100,94,0.00,40.00,8,4,20,0.04
2013-2-8,31,19,1,21,12,-2,94,77,47,0.00,40.00,8,4,20,0.04
2013-2-9,27,15,-6,24,12,-11,99,87,80,0.00,40.00,9,4,15,0.01
2013-2-10,40,32,22,40,32,22,100,99,92,0.00,40.00,11,5,22,0.38
2013-2-11,39,31,26,39,28,19,100,88,73,0.00,40.00,17,11,29,0.07
2013-2-12,31,23,14,19,16,13,100,76,58,0.00,40.00,10,6,20,0.01
2013-2-13,42,26,9,29,21,7,100,82,52,0.00,40.00,5,2,11,0.00
2013-2-14,33,31,23,33,28,13,100,90,66,0.00,40.00,13,6,24,0.13
2013-2-15,24,16,6,13,4,-3,77,60,41,0.00,40.00,12,7,22,0.01
2013-2-16,17,8,-7,0,-4,-12,83,59,33,0.00,40.00,10,5,17,0.00
2013-2-17,24,8,-14,10,-5,-20,79,57,33,0.00,40.00,7,3,12,0.00
2013-2-18,43,31,22,33,23,10,100,72,56,0.00,40.00,13,6,23,0.00
2013-2-19,27,13,6,27,4,-7,100,69,46,0.00,40.00,16,13,32,0.00
2013-2-20,26,14,2,7,1,-7,75,56,41,0.00,40.00,10,7,19,0.00
2013-2-21,23,15,1,22,11,-2,100,85,64,0.00,40.00,10,5,22,0.00
2013-2-22,30,26,21,30,25,20,100,98,83,0.00,40.00,9,5,22,0.18
2013-2-23,32,26,21,26,22,19,100,87,66,0.00,40.00,8,5,16,0.01
2013-2-24,41,26,16,26,21,16,100,82,50,0.00,40.00,5,3,11,0.01
2013-2-25,38,26,14,25,21,13,100,83,53,0.00,40.00,4,2,10,0.00
2013-2-26,38,28,19,28,24,19,100,88,59,0.00,40.00,12,7,29,0.00
2013-2-27,35,31,28,32,28,25,100,90,79,0.00,40.00,9,7,22,0.07
2013-2-28,33,31,25,30,23,13,97,72,59,0.00,40.00,10,7,19,0.01
2013-3-1,33,25,12,20,15,10,93,69,41,0.00,40.00,7,4,15,0.00
2013-3-2,30,18,7,10,6,2,93,64,36,0.00,40.00,8,4,14,0.00
2013-3-3,34,17,-2,9,2,-7,90,60,19,0.00,40.00,4,2,12,0.00
2013-3-4,31,19,3,21,11,0,90,73,54,0.00,40.00,9,5,17,0.00
2013-3-5,29,26,25,28,23,17,100,86,71,0.00,40.00,8,5,15,0.13
2013-3-6,34,26,14,24,21,13,97,81,66,0.00,40.00,10,6,15,0.02
2013-3-7,40,21,2,18,12,-1,97,71,38,0.00,40.00,6,2,12,0.01
2013-3-8,41,24,6,26,17,3,100,77,49,0.00,40.00,9,3,19,0.00
2013-3-9,40,34,27,35,30,25,100,88,72,0.00,40.00,7,4,15,0.43
2013-3-10,38,36,32,38,36,32,100,100,100,0.00,40.00,12,5,28,0.70
2013-3-11,35,32,28,35,31,22,100,94,79,0.00,40.00,11,6,21,0.52
2013-3-12,30,27,22,26,20,11,100,77,60,0.00,40.00,11,8,24,0.01
2013-3-13,33,24,16,15,8,1,82,55,27,0.00,40.00,14,8,22,0.01
2013-3-14,36,23,8,26,16,6,97,75,40,0.00,40.00,6,3,12,0.00
2013-3-15,37,30,25,36,29,25,100,98,91,0.00,40.00,10,4,18,0.04
2013-3-16,32,23,18,26,16,11,100,78,53,0.00,40.00,10,6,18,0.05
2013-3-17,28,20,10,12,7,2,78,58,39,0.00,40.00,9,6,16,0.01
2013-3-18,31,23,15,31,21,10,100,91,75,0.00,40.00,15,5,27,0.21
2013-3-19,29,20,13,12,6,1,84,58,34,0.00,40.00,16,13,30,0.02
2013-3-20,20,14,6,4,-3,-8,58,47,38,0.00,40.00,14,10,22,0.00
2013-3-21,31,17,7,9,4,-2,86,57,36,0.00,40.00,10,6,18,0.00
2013-3-22,38,22,4,15,9,1,91,62,31,0.00,40.00,7,3,17,0.00
2013-3-23,42,26,10,24,15,8,94,70,34,0.00,40.00,7,2,14,0.00
2013-3-24,34,31,29,24,21,18,82,69,57,0.00,40.00,9,6,19,0.00
2013-3-25,37,31,23,22,20,15,82,64,51,0.00,40.00,10,7,20,0.00
2013-3-26,42,34,28,25,20,19,69,59,44,0.00,40.00,10,6,17,0.00
2013-3-27,45,37,31,22,19,15,67,49,31,0.00,40.00,9,5,19,0.00
2013-3-28,48,40,25,19,16,15,77,41,27,0.00,40.00,7,4,15,0.00
2013-3-29,54,35,17,24,18,13,87,57,23,0.00,40.00,5,2,10,0.00
2013-3-30,51,38,25,40,28,-100,93,74,47,0.00,40.00,8,3,18,0.11
2013-3-31,44,37,31,37,28,13,93,71,38,0.00,40.00,12,8,27,0.11
2013-4-1,34,29,22,16,10,6,62,46,32,0.00,40.00,13,8,25,0.01
2013-4-2,38,29,21,13,11,8,64,47,29,0.00,40.00,12,6,23,0.00
2013-4-3,44,32,15,18,12,6,84,48,22,0.00,40.00,6,3,15,0.00
2013-4-4,53,41,29,31,22,15,60,48,34,0.00,40.00,11,6,20,0.00
2013-4-5,45,36,22,25,20,18,84,54,35,0.00,40.00,7,3,13,0.00
2013-4-6,53,40,30,47,33,25,93,77,49,0.00,40.00,11,5,19,0.09
2013-4-7,49,40,35,45,32,29,86,73,55,0.00,40.00,14,7,22,0.02
2013-4-8,40,37,34,37,33,28,91,85,78,0.00,40.00,5,3,13,0.19
2013-4-9,39,36,34,37,33,24,94,88,61,0.00,40.00,10,6,21,0.71
2013-4-10,35,33,31,31,29,24,91,87,63,0.00,40.00,8,5,19,1.32
2013-4-11,34,33,31,32,29,25,92,87,74,0.00,40.00,17,9,31,0.35
2013-4-12,36,33,31,32,30,29,93,89,83,0.00,40.00,7,4,16,0.11
2013-4-13,37,33,29,30,26,22,91,75,57,0.00,40.00,12,7,21,0.01
2013-4-14,38,33,26,34,28,24,92,84,77,0.00,40.00,11,6,22,0.01
2013-4-15,58,45,37,47,34,24,95,69,34,0.00,40.00,13,6,29,0.23
2013-4-16,49,39,29,29,27,25,89,64,43,0.00,40.00,10,6,18,0.09
2013-4-17,40,36,28,36,31,26,93,83,68,0.00,40.00,10,6,20,0.22
2013-4-18,43,39,37,41,37,36,96,94,87,0.00,40.00,11,6,25,0.57
2013-4-19,41,33,28,37,26,16,92,74,56,0.00,40.00,17,11,31,0.17
2013-4-20,44,32,22,19,13,7,85,49,22,0.00,40.00,11,6,21,0.01
2013-4-21,50,36,25,34,28,19,91,73,44,0.00,40.00,7,4,15,0.09
2013-4-22,63,51,41,45,38,31,91,62,40,0.00,40.00,9,5,16,0.11
2013-4-23,54,42,35,45,32,23,90,69,50,0.00,40.00,12,8,21,0.02
2013-4-24,53,41,27,25,22,16,88,51,28,0.00,40.00,12,6,22,0.01
2013-4-25,51,42,30,34,28,23,90,62,35,0.00,40.00,12,7,28,0.02
2013-4-26,71,52,29,43,34,26,91,57,29,0.00,40.00,13,6,25,0.02
2013-4-27,70,58,45,48,44,41,86,62,42,0.00,40.00,10,5,19,0.00
2013-4-28,73,55,36,48,39,34,94,63,30,0.00,40.00,7,2,15,0.00
2013-4-29,70,55,46,57,49,42,94,80,47,0.00,40.00,9,3,18,0.09
2013-4-30,86,75,58,58,53,47,89,51,27,0.00,40.00,13,6,27,0.19
2013-5-1,77,62,48,49,44,36,79,53,36,0.00,40.00,13,6,21,0.19
2013-5-2,48,42,34,36,32,31,89,70,59,0.00,40.00,10,7,20,0.16
2013-5-3,44,37,33,42,35,30,94,91,88,0.00,40.00,7,5,15,0.72
2013-5-4,71,55,42,52,46,40,94,74,41,0.00,40.00,9,4,15,0.13
2013-5-5,73,58,47,49,43,41,90,63,32,0.00,40.00,7,3,14,0.01
2013-5-6,77,58,40,44,41,37,94,60,24,0.00,40.00,7,2,14,0.00
2013-5-7,79,60,40,47,38,30,93,55,17,0.00,40.00,7,2,14,0.00
2013-5-8,82,64,42,48,42,38,93,53,22,0.00,40.00,6,2,11,0.00
2013-5-9,67,56,45,54,49,43,93,80,54,0.00,40.00,9,3,21,0.61
2013-5-10,60,46,39,45,38,-100,93,81,58,0.00,40.00,9,5,19,0.79
2013-5-11,51,45,39,47,32,-100,95,67,32,0.00,40.00,16,8,31,0.01
2013-5-12,53,44,35,28,22,17,65,43,26,0.00,40.00,14,9,27,0.00
2013-5-13,64,47,26,35,26,18,91,51,18,0.00,40.00,7,3,19,0.00
2013-5-14,84,65,43,60,44,33,83,50,22,0.00,40.00,9,4,18,0.00
2013-5-15,78,69,54,55,42,36,65,38,23,0.00,40.00,12,6,22,0.00
2013-5-16,81,58,46,51,23,-100,90,49,26,0.00,40.00,9,4,19,0.00
2013-5-17,59,52,48,51,38,-100,92,76,42,0.00,40.00,7,5,15,0.41
2013-5-18,77,63,50,63,55,48,94,77,56,0.00,40.00,6,4,12,0.01
2013-5-19,85,70,53,64,59,52,97,73,44,0.00,40.00,10,4,21,0.00
2013-5-20,82,71,61,64,60,56,98,70,42,0.00,40.00,15,6,33,0.37
2013-5-21,76,69,62,64,58,54,94,68,50,0.00,40.00,11,5,20,0.14
2013-5-22,63,57,52,58,55,50,97,93,80,0.00,40.00,7,3,19,0.26
2013-5-23,63,53,45,50,39,29,93,64,28,0.00,40.00,10,6,21,0.10
2013-5-24,65,50,31,41,34,29,93,58,31,0.00,40.00,5,3,13,0.01
2013-5-25,66,55,45,42,37,34,81,53,33,0.00,40.00,7,4,16,0.00
2013-5-26,66,53,36,42,38,34,94,61,35,0.00,40.00,8,4,18,0.00
2013-5-27,57,54,51,53,45,38,95,74,51,0.00,40.00,9,5,21,0.23
2013-5-28,61,55,50,58,54,49,98,95,89,0.00,40.00,5,3,13,0.36
2013-5-29,84,69,58,66,61,57,99,80,44,0.00,40.00,8,4,22,0.07
2013-5-30,83,71,62,71,66,60,100,84,57,0.00,40.00,15,6,35,0.61
2013-5-31,79,70,62,65,61,56,91,75,53,0.00,40.00,12,7,22,0.11
2013-6-1,79,68,54,64,55,-100,97,68,40,0.00,40.00,13,6,25,0.00
2013-6-2,63,54,44,55,41,37,93,64,42,0.00,40.00,12,8,22,0.00
2013-6-3,73,57,36,48,41,34,94,62,30,0.00,40.00,7,2,15,0.00
2013-6-4,55,53,50,54,50,46,96,90,77,0.00,40.00,5,3,13,0.22
2013-6-5,60,53,51,53,51,49,97,92,77,0.00,40.00,6,4,14,0.25
2013-6-6,55,53,51,53,51,49,97,93,86,0.00,40.00,5,3,12,0.62
2013-6-7,69,58,48,55,50,45,96,76,49,0.00,40.00,5,2,10,0.04
2013-6-8,69,58,51,57,53,47,97,84,46,0.00,40.00,3,1,8,0.07
2013-6-9,75,62,49,61,55,48,97,78,51,0.00,40.00,8,4,21,0.02
2013-6-10,79,70,57,66,61,56,97,75,54,0.00,40.00,4,1,9,0.01
2013-6-11,81,69,54,65,60,53,97,76,50,0.00,40.00,5,2,12,0.00
2013-6-12,78,67,59,64,62,57,98,86,56,0.00,40.00,6,3,14,0.39
2013-6-13,76,67,57,57,54,51,94,65,43,0.00,40.00,8,4,18,0.36
2013-6-14,78,64,48,60,52,47,96,67,40,0.00,40.00,5,2,12,0.00
2013-6-15,79,67,57,70,62,52,98,85,63,0.00,40.00,6,3,27,1.04
2013-6-16,84,70,57,65,56,47,99,69,29,0.00,40.00,10,4,19,0.47
2013-6-17,84,68,56,62,56,50,98,72,32,0.00,40.00,11,4,23,0.07
2013-6-18,72,62,50,58,49,43,96,67,38,0.00,40.00,6,3,13,0.07
2013-6-19,78,62,42,56,49,41,96,68,38,0.00,40.00,4,1,16,0.00
2013-6-20,86,66,52,59,54,51,97,71,35,0.00,40.00,8,2,16,0.00
2013-6-22,81,74,67,70,68,66,98,84,61,0.00,40.00,6,4,18,0.39
2013-6-23,86,75,64,71,68,63,98,80,60,0.00,40.00,10,4,21,0.61
2013-6-24,84,73,65,70,67,64,98,83,54,0.00,40.00,8,3,16,0.01
2013-6-25,80,71,65,72,67,64,98,88,68,0.00,40.00,5,2,12,0.28
2013-6-26,84,74,68,71,69,66,99,85,58,0.00,40.00,6,2,12,0.01
2013-6-27,86,75,65,71,66,58,99,75,44,0.00,40.00,10,4,22,0.02
2013-6-28,77,68,63,65,62,58,98,81,60,0.00,40.00,10,4,19,0.39
2013-6-29,71,65,62,64,60,53,98,85,66,0.00,40.00,6,4,16,0.43
2013-6-30,79,68,56,61,49,42,94,54,27,0.00,40.00,6,3,17,0.01
2013-7-1,82,67,49,58,52,48,96,63,32,0.00,40.00,6,2,15,0.00
2013-7-2,76,66,53,58,50,42,90,61,30,0.00,40.00,6,2,14,0.00
2013-7-3,71,63,53,62,56,50,95,77,59,0.00,40.00,3,1,9,0.02
2013-7-4,83,70,56,61,58,55,97,70,39,0.00,40.00,7,2,14,0.02
2013-7-5,86,73,54,65,59,53,97,67,38,0.00,40.00,8,3,17,0.00
2013-7-6,88,73,59,66,62,58,97,73,40,0.00,40.00,8,2,16,0.00
2013-7-7,89,75,60,71,66,59,97,77,45,0.00,40.00,7,2,15,0.00
2013-7-8,86,76,69,74,71,68,99,87,58,0.00,40.00,7,2,14,0.49
2013-7-9,83,74,63,73,69,62,98,86,65,0.00,40.00,9,3,17,0.39
2013-7-10,78,70,57,69,55,-100,95,64,44,0.00,40.00,11,6,26,0.01
2013-7-11,82,68,52,63,55,51,96,70,36,0.00,40.00,4,1,10,0.00
2013-7-12,83,68,52,62,56,51,96,70,37,0.00,40.00,5,2,14,0.00
2013-7-13,84,70,57,64,59,56,96,70,44,0.00,40.00,7,2,15,0.00
2013-7-14,88,72,54,69,62,53,96,73,44,0.00,40.00,5,2,13,0.00
2013-7-15,91,76,62,73,67,61,97,76,47,0.00,40.00,5,1,13,0.00
2013-7-16,92,86,75,77,73,71,94,67,50,0.00,40.00,6,3,15,0.07
2013-7-17,95,82,69,75,70,67,97,72,40,0.00,40.00,7,2,13,0.01
2013-7-18,94,86,68,74,69,67,97,62,43,0.00,40.00,8,5,18,0.01
2013-7-19,93,83,69,71,65,55,74,58,30,0.00,40.00,11,6,23,0.00
2013-7-20,81,70,58,62,57,-100,95,67,46,0.00,40.00,5,2,11,0.00
2013-7-21,72,64,58,64,58,53,96,82,52,0.00,40.00,5,2,10,0.42
2013-7-22,85,72,59,71,65,58,96,80,54,0.00,40.00,9,3,21,0.05
2013-7-23,76,68,58,69,54,47,89,63,44,0.00,40.00,10,4,20,0.00
2013-7-24,75,62,48,57,50,46,95,69,40,0.00,40.00,4,1,10,0.00
2013-7-25,79,66,50,67,58,49,95,77,50,0.00,40.00,8,3,17,0.20
2013-7-26,77,66,57,65,58,50,98,80,42,0.00,40.00,11,4,23,0.37
2013-7-27,61,54,47,52,46,41,92,75,58,0.00,40.00,9,5,17,0.02
2013-7-28,67,58,51,52,50,46,95,75,55,0.00,40.00,10,6,20,0.05
2013-7-29,75,62,54,58,52,49,95,73,49,0.00,40.00,6,2,12,0.01
2013-7-30,77,64,50,62,56,49,97,78,50,0.00,40.00,6,2,12,0.00
2013-7-31,80,68,60,65,61,58,97,83,48,0.00,40.00,8,2,27,0.03
2013-8-1,79,65,51,59,53,49,97,70,35,0.00,40.00,8,3,19,0.02
2013-8-2,80,68,54,61,54,49,96,64,36,0.00,40.00,9,4,19,0.00
2013-8-3,77,64,47,55,49,45,95,63,33,0.00,40.00,9,3,19,0.00
2013-8-4,75,63,48,57,52,47,95,69,41,0.00,40.00,4,1,8,0.00
2013-8-5,73,62,50,63,57,49,97,83,62,0.00,40.00,6,3,13,0.00
2013-8-6,84,72,63,67,64,60,97,80,44,0.00,40.00,7,3,16,0.00
2013-8-7,78,67,57,69,60,51,97,79,46,0.00,40.00,8,4,28,0.30
2013-8-8,79,66,48,61,53,47,95,66,35,0.00,40.00,4,2,11,0.01
2013-8-9,78,67,56,60,54,49,95,68,36,0.00,40.00,9,3,19,0.00
2013-8-10,74,64,53,56,53,50,95,70,43,0.00,40.00,4,1,10,0.00
2013-8-11,67,59,50,64,58,49,96,94,88,0.00,40.00,2,0,6,0.15
2013-8-12,80,67,57,67,58,51,97,76,41,0.00,40.00,8,2,19,0.01
2013-8-13,72,59,44,58,45,-100,95,65,39,0.00,40.00,7,3,16,0.01
2013-8-14,75,58,40,54,46,38,95,71,33,0.00,40.00,5,1,11,0.00
2013-8-15,77,60,49,58,45,-100,96,70,34,0.00,40.00,6,2,17,0.00
2013-8-16,83,65,50,58,49,-100,95,65,30,0.00,40.00,5,2,9,0.00
2013-8-17,83,66,49,58,52,-100,95,67,37,0.00,40.00,6,2,12,0.00
2013-8-18,82,66,48,58,53,47,95,69,37,0.00,40.00,6,2,12,0.00
2013-8-19,84,65,49,63,51,-100,95,72,37,0.00,40.00,7,2,17,0.00
2013-8-20,87,72,57,65,61,56,96,72,43,0.00,40.00,9,3,18,0.00
2013-8-21,91,77,66,70,66,63,97,72,48,0.00,40.00,14,4,29,0.04
2013-8-22,83,70,61,65,60,55,97,76,38,0.00,40.00,5,1,11,0.04
2013-8-23,84,68,51,62,56,50,96,70,37,0.00,40.00,5,2,13,0.00
2013-8-24,86,69,51,67,57,-100,96,70,39,0.00,40.00,6,2,15,0.00
2013-8-25,92,80,71,68,67,65,85,66,43,0.00,40.00,10,5,21,0.00
2013-8-26,92,80,68,74,68,64,89,68,45,0.00,40.00,10,4,22,0.00
2013-8-27,95,80,72,74,71,69,96,77,43,0.00,40.00,6,2,15,0.00
2013-8-28,84,78,68,69,68,67,97,73,58,0.00,40.00,4,2,11,0.54
2013-8-29,88,76,62,69,66,61,97,75,44,0.00,40.00,7,2,14,0.01
2013-8-30,88,77,67,74,68,62,95,76,51,0.00,40.00,9,4,19,0.00
2013-8-31,80,68,59,64,60,-100,96,79,55,0.00,40.00,5,2,13,0.00
2013-9-1,84,71,61,70,61,54,97,75,42,0.00,40.00,12,4,22,0.00
2013-9-2,69,62,53,59,53,49,95,74,50,0.00,40.00,9,4,15,0.00
2013-9-3,76,59,40,51,46,38,93,69,33,0.00,40.00,6,2,13,0.00
2013-9-4,86,65,46,64,55,44,94,73,41,0.00,40.00,8,2,14,0.00
2013-9-5,77,65,55,61,53,47,95,67,40,0.00,40.00,5,3,14,0.00
2013-9-6,88,67,46,64,55,44,94,69,41,0.00,40.00,7,3,16,0.00
2013-9-7,90,74,63,69,63,-100,94,72,46,0.00,40.00,7,2,17,0.00
2013-9-8,73,66,58,66,58,54,92,76,59,0.00,40.00,7,4,24,0.00
2013-9-9,91,75,61,73,66,59,94,75,53,0.00,40.00,9,3,17,0.00
2013-9-10,93,83,71,66,63,60,85,52,35,0.00,40.00,9,4,21,0.03
2013-9-11,83,73,62,68,61,56,97,71,40,0.00,40.00,6,3,15,0.03
2013-9-12,74,63,54,58,50,40,95,65,37,0.00,40.00,11,5,23,0.00
2013-9-13,66,52,38,44,39,33,92,65,33,0.00,40.00,6,2,12,0.00
2013-9-14,72,53,34,50,39,-100,92,66,35,0.00,40.00,7,2,16,0.00
2013-9-15,65,57,53,55,52,46,96,84,67,0.00,40.00,5,2,17,0.84
2013-9-16,63,50,35,46,40,33,93,72,45,0.00,40.00,5,2,15,0.10
2013-9-17,66,52,34,56,45,32,95,79,56,0.00,40.00,5,2,13,0.19
2013-9-18,66,58,56,65,57,55,96,95,94,0.00,40.00,2,1,7,0.30
2013-9-19,80,70,62,73,67,61,98,90,69,0.00,40.00,9,4,17,0.51
2013-9-20,67,64,57,66,59,52,98,87,61,0.00,40.00,8,4,19,0.35
2013-9-21,59,51,42,52,43,-100,94,76,53,0.00,40.00,9,4,18,0.01
2013-9-22,61,48,34,44,39,32,94,73,43,0.00,40.00,5,2,10,0.00
2013-9-23,68,52,37,49,44,35,94,75,47,0.00,40.00,5,2,12,0.00
2013-9-24,73,54,40,54,46,38,95,78,43,0.00,40.00,5,2,14,0.00
2013-9-25,70,53,39,54,47,37,95,82,50,0.00,40.00,5,2,10,0.00
2013-9-26,75,57,39,58,48,37,96,78,43,0.00,40.00,5,2,13,0.00
2013-9-27,80,61,42,54,49,41,95,69,34,0.00,40.00,7,2,15,0.00
2013-9-28,79,61,46,66,51,-100,95,74,47,0.00,40.00,10,4,29,0.29
2013-9-29,70,54,39,50,45,37,96,76,38,0.00,40.00,7,2,13,0.27
2013-9-30,72,54,38,48,42,36,95,70,36,0.00,40.00,11,3,24,0.00
2013-10-1,70,61,50,49,46,44,83,60,47,0.00,40.00,2,1,10,0.00
2013-10-2,76,57,36,48,40,34,93,61,22,0.00,40.00,4,1,10,0.00
2013-10-3,70,60,51,62,54,43,96,82,62,0.00,40.00,4,2,14,0.14
2013-10-4,58,57,55,57,56,54,97,96,93,0.00,40.00,6,3,15,0.42
2013-10-5,66,62,57,66,61,56,99,98,96,0.00,40.00,6,3,15,0.53
2013-10-6,62,53,42,61,44,37,96,73,45,0.00,40.00,6,2,12,0.47
2013-10-7,65,52,40,47,42,38,95,74,38,0.00,40.00,10,5,22,0.02
2013-10-8,75,53,33,47,40,31,95,69,34,0.00,40.00,10,3,18,0.01
2013-10-9,73,56,39,49,45,37,94,73,38,0.00,40.00,8,2,16,0.00
2013-10-10,74,56,37,50,45,35,94,70,35,0.00,40.00,5,2,12,0.00
2013-10-11,75,58,42,58,49,41,96,76,47,0.00,40.00,7,3,17,0.00
2013-10-12,70,61,44,61,47,-100,86,64,39,0.00,40.00,10,4,20,0.02
2013-10-13,59,46,34,41,36,32,93,71,37,0.00,40.00,10,3,19,0.02
2013-10-14,60,45,29,41,35,27,93,73,43,0.00,40.00,6,2,14,0.00
2013-10-15,57,51,42,56,48,39,97,90,74,0.00,40.00,5,3,15,0.51
2013-10-16,52,49,43,48,44,39,96,86,73,0.00,40.00,7,4,13,0.02
2013-10-17,55,44,34,41,37,32,95,79,45,0.00,40.00,6,2,13,0.01
2013-10-18,47,42,35,44,38,33,95,88,72,0.00,40.00,8,3,20,0.00
2013-10-19,52,38,27,39,32,-100,94,82,44,0.00,40.00,8,2,23,0.03
2013-10-20,45,39,32,43,37,30,95,93,87,0.00,40.00,6,2,15,0.07
2013-10-21,45,37,32,43,26,18,94,65,46,0.00,40.00,10,7,22,0.03
2013-10-22,46,37,27,28,24,19,83,61,44,0.00,40.00,7,4,15,0.00
2013-10-23,41,33,24,27,23,21,90,70,47,0.00,40.00,8,4,20,0.00
2013-10-24,42,35,27,26,24,22,87,63,47,0.00,40.00,10,6,19,0.00
2013-10-25,49,38,25,29,25,22,91,64,40,0.00,40.00,9,4,27,0.00
2013-10-26,50,46,39,34,28,-100,69,52,43,0.00,40.00,14,7,28,0.00
2013-10-27,55,39,24,29,26,22,91,66,33,0.00,40.00,8,2,19,0.00
2013-10-28,43,37,27,29,24,-100,83,61,48,0.00,40.00,6,4,17,0.00
2013-10-29,48,36,25,39,30,21,92,78,66,0.00,40.00,5,2,11,0.00
2013-10-30,54,46,36,52,44,34,98,94,86,0.00,40.00,4,2,11,0.00
2013-10-31,56,51,42,56,50,40,100,98,94,0.00,40.00,11,4,22,0.33
2013-11-1,45,43,41,43,40,38,95,91,86,0.00,40.00,11,5,22,0.04
2013-11-2,43,39,31,39,35,-100,95,87,76,0.00,40.00,7,3,12,0.04
2013-11-3,49,37,26,38,31,25,96,80,49,0.00,40.00,6,2,15,0.01
2013-11-4,53,47,42,43,37,34,83,70,55,0.00,40.00,8,5,20,0.00
2013-11-5,52,46,32,49,42,30,98,88,59,0.00,40.00,4,2,11,0.95
2013-11-6,52,40,30,52,34,21,99,80,54,0.00,40.00,11,6,19,1.24
2013-11-7,40,30,21,27,24,19,92,77,52,0.00,40.00,8,3,17,0.06
2013-11-8,42,32,18,33,26,15,92,76,60,0.00,40.00,6,2,14,0.01
2013-11-9,48,43,39,39,32,-100,92,68,50,0.00,40.00,14,8,30,0.07
2013-11-10,47,42,38,28,26,25,62,54,41,0.00,40.00,12,6,25,0.01
2013-11-11,41,31,24,34,18,5,92,59,39,0.00,40.00,12,6,22,0.04
2013-11-12,29,22,15,11,8,6,75,55,38,0.00,40.00,8,5,17,0.02
2013-11-13,45,30,15,21,13,9,78,53,34,0.00,40.00,12,6,25,0.00
2013-11-14,48,39,30,28,22,13,84,51,40,0.00,40.00,7,4,15,0.00
2013-11-15,55,36,23,34,28,21,94,77,44,0.00,40.00,5,1,10,0.00
2013-11-16,56,43,28,55,41,-100,100,96,92,0.00,40.00,8,4,29,1.18
2013-11-17,57,49,39,56,46,28,100,90,65,0.00,40.00,17,7,29,1.49
2013-11-18,39,32,26,28,20,17,71,62,55,0.00,40.00,15,11,36,0.02
2013-11-19,39,28,16,26,19,13,90,71,47,0.00,40.00,5,2,11,0.00
2013-11-20,39,35,31,33,27,24,96,74,55,0.00,40.00,7,3,19,0.01
2013-11-21,41,38,34,37,35,32,98,91,82,0.00,40.00,10,3,15,0.02
2013-11-22,35,30,25,32,19,9,89,66,43,0.00,40.00,10,6,19,0.01
2013-11-23,26,15,7,11,0,-100,68,51,41,0.00,40.00,12,8,24,0.00
2013-11-24,26,15,4,2,0,-3,76,52,30,0.00,40.00,11,5,22,0.00
2013-11-25,32,28,23,24,17,2,76,64,36,0.00,40.00,11,6,22,0.00
2013-11-26,33,24,12,24,10,0,73,56,42,0.00,40.00,13,7,24,0.00
2013-11-27,27,18,10,16,6,0,82,60,41,0.00,40.00,8,5,18,0.00
2013-11-28,27,21,10,17,12,6,84,68,52,0.00,40.00,8,2,16,0.00
2013-11-29,29,18,4,16,10,-1,83,70,51,0.00,40.00,5,1,11,0.00
2013-11-30,45,34,25,25,21,-100,72,61,45,0.00,40.00,5,3,12,0.00
2013-12-1,40,29,22,27,22,20,92,78,51,0.00,40.00,2,0,9,0.00
2013-12-2,38,28,16,31,24,13,97,83,66,0.00,40.00,6,2,13,0.03
2013-12-3,33,32,32,32,32,31,98,98,97,0.00,40.00,7,5,19,0.33
2013-12-4,41,34,31,41,33,31,99,98,86,0.00,40.00,10,4,24,0.04
2013-12-5,35,19,9,31,8,-1,86,61,48,0.00,40.00,13,9,27,0.01
2013-12-6,12,7,2,-1,-4,-6,70,61,50,0.00,40.00,10,7,21,0.00
2013-12-7,10,2,-4,-6,-9,-100,77,61,42,0.00,40.00,8,4,16,0.00
2013-12-8,12,8,-1,8,1,-7,82,73,62,0.00,40.00,6,3,13,0.01
2013-12-9,15,8,-5,9,-1,-13,85,67,49,0.00,40.00,14,6,26,0.03
2013-12-10,15,6,-10,5,-5,-17,73,62,49,0.00,40.00,13,5,28,0.00
2013-12-11,10,2,-12,4,-10,-19,81,59,39,0.00,40.00,12,5,20,0.00
2013-12-12,20,8,-10,8,-2,-17,73,63,50,0.00,40.00,6,3,16,0.00
2013-12-13,19,16,13,10,6,0,71,63,56,0.00,40.00,6,4,16,0.00
2013-12-14,22,16,13,14,10,-100,88,78,69,0.00,40.00,10,3,18,0.01
2013-12-15,17,6,-4,11,-6,-15,78,57,39,0.00,40.00,11,8,22,0.01
2013-12-16,13,4,-8,9,-4,-16,85,70,54,0.00,40.00,6,1,11,0.09
2013-12-17,32,24,13,25,17,9,90,76,59,0.00,40.00,10,6,26,0.05
2013-12-18,33,18,4,15,8,-1,87,67,43,0.00,40.00,8,3,15,0.00
2013-12-19,27,23,14,19,16,11,89,76,67,0.00,40.00,7,4,19,0.00
2013-12-20,22,20,18,20,17,14,92,88,85,0.00,40.00,6,3,17,0.16
2013-12-21,26,23,21,24,20,-100,95,90,82,0.00,40.00,5,2,14,0.01
2013-12-22,24,22,18,21,19,16,92,86,76,0.00,40.00,6,3,16,0.13
2013-12-23,20,12,1,18,8,-5,92,82,74,0.00,40.00,7,4,12,0.05
2013-12-24,17,2,-15,4,-5,-22,81,70,57,0.00,40.00,4,2,10,0.01
2013-12-25,20,14,7,16,10,2,92,83,74,0.00,40.00,9,2,16,0.15
2013-12-26,20,17,11,15,11,7,89,79,69,0.00,40.00,9,2,16,0.01
2013-12-27,36,20,0,28,14,-5,88,78,67,0.00,40.00,7,3,15,0.00
2013-12-28,46,30,15,31,23,-100,97,80,51,0.00,40.00,8,2,15,0.00
2013-12-29,37,16,-6,29,8,-16,95,69,52,0.00,40.00,13,7,23,0.00
2013-12-30,2,-6,-18,-6,-17,-26,74,57,36,0.00,40.00,4,2,11,0.00
2013-12-31,6,1,-11,-7,-10,-18,73,61,50,0.00,40.00,8,4,14,0.00
2014-1-1,9,2,-12,-7,-12,-19,71,53,40,0.00,40.00,5,2,12,0.00
2014-1-2,13,3,-14,-4,-9,-21,71,57,41,0.00,40.00,8,3,14,0.00